• Join FlightAware (Why Join?)
  • Login
  • US Flag 
09:07AM EDT


 

Airport Tracker/Info


-or-


 

Live Flight TrackerFlight Track Log ✈ SKP19 ✈ 21-Apr-2013 ✈ YTWB - YBBN / BNE

Flight Track Log - Related Links

Times and Time Zones

All times are in EDT time to prevent confusion due to time zone crossing. See the SKP19 flight status page for this flight to view local times or setup timezone preferences in your user account.

Time Position Orientation Groundspeed Altitude Reporting Facility
EDT Latitude Longitude Course Direction KTS MPH feet Rate Location/Type
01:11AM -27.5425 151.9561 57° Northeast 131 151 3,800  Level Aus ATC (RADAR)
01:11AM -27.5370 151.9657 57° Northeast 140 161 4,100 1,200 Climbing Aus ATC (RADAR)
01:12AM -27.5288 151.9924 71° East 155 178 4,800 1,440 Climbing Aus ATC (RADAR)
01:13AM -27.5235 152.0463 84° East 162 186 6,500 1,620 Climbing Aus ATC (RADAR)
01:14AM -27.5201 152.0748 83° East 159 183 7,500 1,440 Climbing Aus ATC (RADAR)
01:15AM -27.5123 152.1223 80° East 171 197 8,700 1,080 Climbing Aus ATC (RADAR)
01:15AM -27.5078 152.1549 81° East 182 209 9,200 180 Climbing Aus ATC (RADAR)
01:16AM -27.4967 152.2446 82° East 239 275 9,100 -120 Descending Aus ATC (RADAR)
01:17AM -27.4935 152.2636 79° East 242 278 9,100  Level Aus ATC (RADAR)
01:17AM -27.4863 152.3084 80° East 247 284 9,100  Level Aus ATC (RADAR)
01:18AM -27.4747 152.3926 81° East 250 288 9,100  Level Aus ATC (RADAR)
01:19AM -27.4681 152.4384 81° East 250 288 9,100  Level Aus ATC (RADAR)
01:20AM -27.4574 152.5165 81° East 250 288 9,100  Level Aus ATC (RADAR)
01:21AM -27.4452 152.5943 80° East 250 288 9,100 -300 Level Aus ATC (RADAR)
01:22AM -27.4379 152.6466 81° East 251 289 8,600 -1,020 Descending Aus ATC (RADAR)
01:22AM -27.4347 152.6672 80° East 258 297 8,200 -1,620 Descending Aus ATC (RADAR)
01:22AM -27.4213 152.7160 73° East 274 315 7,300 -1,920 Descending Aus ATC (RADAR)
01:23AM -27.3958 152.7838 67° East 246 283 5,400 -1,800 Descending Aus ATC (RADAR)
01:24AM -27.3886 152.8228 78° East 219 252 4,600 -1,020 Descending Aus ATC (RADAR)
01:25AM -27.3729 152.9001 77° East 231 266 3,700 -840 Descending Aus ATC (RADAR)
01:26AM -27.3614 152.9595 78° East 229 264 3,100 -780 Descending Aus ATC (RADAR)
01:27AM -27.3448 153.0195 73° East 210 242 2,400 -720 Descending Aus ATC (RADAR)
01:27AM -27.3353 153.0513 72° East 180 207 2,100 -840 Descending Aus ATC (RADAR)
01:28AM -27.3237 153.0912 72° East 136 157 1,200 -1,080 Descending Aus ATC (RADAR)
01:29AM -27.3350 153.1080 127° Southeast 112 129 500 -1,200 Descending Aus ATC (RADAR)